Nasco Pearl — VRHS2 — position and weather

sailwx.info

Track history (hours):
 
Tides and Currents Weather Stations Pressure Air Temp Water Temp Dewpoint Dewpoint Depression Visibility Wind Speed Wind Dir Waves Ship Positions

Nasco Pearl

Last reported at 2014-Oct-02 11:21 UTC. Time now 2014-Oct-25 19:04 UTC.
Position N 01°12' E 103°37'.
Warning: this ship's position is 23 days out of date.

Length 189 m; draft 12 m.

Type: Cargo ship. MMSI: 477982400.

Date/timePositionNaut miles runAvg speedWind from/ knotsBaromVisibWave heightAir tempDewpointWater temp
2014-Oct-02 11:21N 01°12' E 103°37'911.3
2014-Oct-02 10:34N 01°09' E 103°45'1111.4
2014-Oct-02 09:34N 01°14' E 103°55'3 0.2
2014-Oct-01 18:11N 01°17' E 103°56'1 2.2
2014-Oct-01 17:33N 01°16' E 103°57'  
2014-Sep-25 05:19N 28°13' E 122°10'6112.5
2014-Sep-25 00:26N 29°09' E 122°38'1612.8
2014-Sep-24 23:13N 29°24' E 122°43'1213.4
2014-Sep-24 22:21N 29°35' E 122°48'2813.6
2014-Sep-24 20:17N 29°59' E 123°03'  
Track history (hours):
 
Tides and Currents Weather Stations Pressure Air Temp Water Temp Dewpoint Dewpoint Depression Visibility Wind Speed Wind Dir Waves Ship Positions

Nasco Pearl

Last reported at 2014-Oct-02 11:21 UTC. Time now 2014-Oct-25 19:04 UTC.
Position N 01°12' E 103°37'.
Warning: this ship's position is 23 days out of date.

Length 189 m; draft 12 m.

Type: Cargo ship. MMSI: 477982400.

Date/timePositionNaut miles runAvg speedWind from/ knotsBaromVisibWave heightAir tempDewpointWater temp
2014-Oct-02 11:21N 01°12' E 103°37'911.3
2014-Oct-02 10:34N 01°09' E 103°45'1111.4
2014-Oct-02 09:34N 01°14' E 103°55'3 0.2
2014-Oct-01 18:11N 01°17' E 103°56'1 2.2
2014-Oct-01 17:33N 01°16' E 103°57'  
2014-Sep-25 05:19N 28°13' E 122°10'6112.5
2014-Sep-25 00:26N 29°09' E 122°38'1612.8
2014-Sep-24 23:13N 29°24' E 122°43'1213.4
2014-Sep-24 22:21N 29°35' E 122°48'2813.6
2014-Sep-24 20:17N 29°59' E 123°03'  

Dump ship's entire track history